createdAt,value
2023-03-26T00:00:27.401Z,100300.0
2023-03-26T00:02:28.751Z,100310.0
2023-03-26T00:04:27.025Z,100310.0
2023-03-26T00:06:28.392Z,100300.0
2023-03-26T00:08:26.036Z,100300.0
2023-03-26T00:10:25.925Z,100300.0
2023-03-26T00:14:25.936Z,100290.0
2023-03-26T00:16:27.297Z,100290.0
2023-03-26T00:18:29.556Z,100280.0
2023-03-26T00:20:26.446Z,100280.0
2023-03-26T00:22:23.860Z,100280.0
2023-03-26T00:24:28.880Z,100280.0
2023-03-26T00:26:23.379Z,100270.0
2023-03-26T00:28:23.843Z,100270.0
2023-03-26T00:30:22.655Z,100260.0
2023-03-26T00:32:22.435Z,100250.0
2023-03-26T00:36:24.295Z,100260.0
2023-03-26T00:38:23.097Z,100260.0
2023-03-26T00:40:22.421Z,100260.0
2023-03-26T00:42:20.531Z,100250.0
2023-03-26T00:44:20.955Z,100250.0
2023-03-26T00:46:20.046Z,100250.0
2023-03-26T00:48:26.569Z,100250.0
2023-03-26T00:52:22.480Z,100250.0
2023-03-26T00:54:18.718Z,100250.0
2023-03-26T00:58:21.243Z,100240.0
2023-03-26T01:00:28.359Z,100250.0
2023-03-26T01:02:19.836Z,100240.0
2023-03-26T01:04:26.223Z,100230.0
2023-03-26T01:06:26.743Z,100230.0
2023-03-26T01:08:28.012Z,100220.0
2023-03-26T01:10:16.390Z,100220.0
2023-03-26T01:12:19.694Z,100210.0
2023-03-26T01:16:22.443Z,100200.0
2023-03-26T01:18:16.427Z,100200.0
2023-03-26T01:20:25.654Z,100190.0
2023-03-26T01:24:14.642Z,100180.0
2023-03-26T01:26:30.462Z,100160.0
2023-03-26T01:28:16.512Z,100160.0
2023-03-26T01:32:23.904Z,100160.0
2023-03-26T01:36:20.134Z,100150.0
2023-03-26T01:40:23.003Z,100150.0
2023-03-26T01:42:18.057Z,100150.0
2023-03-26T01:44:19.482Z,100140.0
2023-03-26T01:46:14.366Z,100140.0
2023-03-26T01:48:12.255Z,100130.0
2023-03-26T01:50:11.169Z,100130.0
2023-03-26T01:52:15.217Z,100130.0
2023-03-26T01:54:15.868Z,100120.0
2023-03-26T01:56:17.055Z,100120.0
2023-03-26T01:58:18.356Z,100120.0
2023-03-26T02:00:19.792Z,100110.0
2023-03-26T02:02:12.384Z,100100.0
2023-03-26T02:04:15.915Z,100100.0
2023-03-26T02:06:14.668Z,100090.0
2023-03-26T02:08:15.648Z,100090.0
2023-03-26T02:10:13.307Z,100090.0
2023-03-26T02:12:08.772Z,100080.0
2023-03-26T02:14:08.118Z,100070.0
2023-03-26T02:16:11.018Z,100060.0
2023-03-26T02:18:09.789Z,100060.0
2023-03-26T02:20:09.057Z,100060.0
2023-03-26T02:22:09.978Z,100060.0
2023-03-26T02:24:05.619Z,100050.0
2023-03-26T02:28:04.864Z,100060.0
2023-03-26T02:30:08.459Z,100060.0
2023-03-26T02:32:04.403Z,100050.0
2023-03-26T02:34:03.649Z,100050.0
2023-03-26T02:36:07.360Z,100050.0
2023-03-26T02:38:03.066Z,100040.0
2023-03-26T02:40:04.842Z,100040.0
2023-03-26T02:42:02.488Z,100030.0
2023-03-26T02:44:02.882Z,100030.0
2023-03-26T02:46:01.868Z,100030.0
2023-03-26T02:48:01.818Z,100020.0
2023-03-26T02:50:02.671Z,100020.0
2023-03-26T02:52:05.315Z,100010.0
2023-03-26T02:54:00.601Z,100000.0
2023-03-26T02:56:00.026Z,100000.0
2023-03-26T02:57:59.908Z,99990.0
2023-03-26T03:00:07.862Z,99990.0
2023-03-26T03:01:59.452Z,99980.0
2023-03-26T03:04:00.636Z,99980.0
2023-03-26T03:05:58.500Z,99970.0
2023-03-26T03:10:01.350Z,99950.0
2023-03-26T03:11:57.888Z,99950.0
2023-03-26T03:13:57.178Z,99940.0
2023-03-26T03:15:57.483Z,99930.0
2023-03-26T03:17:56.499Z,99930.0
2023-03-26T03:19:56.196Z,99930.0
2023-03-26T03:21:55.883Z,99940.0
2023-03-26T03:23:56.414Z,99920.0
2023-03-26T03:25:57.149Z,99930.0
2023-03-26T03:27:55.070Z,99920.0
2023-03-26T03:29:55.814Z,99920.0
2023-03-26T03:31:54.634Z,99910.0
2023-03-26T03:33:54.044Z,99910.0
2023-03-26T03:35:54.253Z,99910.0
2023-03-26T03:37:53.539Z,99900.0
2023-03-26T03:39:53.452Z,99900.0
2023-03-26T03:41:52.831Z,99900.0
2023-03-26T03:43:52.417Z,99890.0
2023-03-26T03:45:52.131Z,99880.0
2023-03-26T03:47:52.367Z,99880.0
2023-03-26T03:49:52.664Z,99870.0
2023-03-26T03:51:51.430Z,99870.0
2023-03-26T03:53:51.726Z,99860.0
2023-03-26T03:55:52.055Z,99860.0
2023-03-26T03:57:51.487Z,99850.0
2023-03-26T03:59:50.097Z,99850.0
2023-03-26T04:01:49.856Z,99840.0
2023-03-26T04:05:54.315Z,99830.0
2023-03-26T04:07:49.272Z,99830.0
2023-03-26T04:09:48.403Z,99820.0
2023-03-26T04:11:49.793Z,99820.0
2023-03-26T04:13:48.076Z,99820.0
2023-03-26T04:15:47.449Z,99810.0
2023-03-26T04:17:47.176Z,99810.0
2023-03-26T04:19:46.912Z,99810.0
2023-03-26T04:21:46.326Z,99800.0
2023-03-26T04:23:46.230Z,99790.0
2023-03-26T04:27:46.790Z,99790.0
2023-03-26T04:29:48.797Z,99790.0
2023-03-26T04:31:46.022Z,99780.0
2023-03-26T04:33:46.226Z,99780.0
2023-03-26T04:37:45.013Z,99770.0
2023-03-26T04:39:43.779Z,99770.0
2023-03-26T04:41:43.132Z,99770.0
2023-03-26T04:43:46.186Z,99770.0
2023-03-26T04:45:44.733Z,99770.0
2023-03-26T04:47:42.234Z,99760.0
2023-03-26T04:49:41.932Z,99760.0
2023-03-26T04:51:43.724Z,99750.0
2023-03-26T04:53:41.234Z,99750.0
2023-03-26T04:55:45.970Z,99740.0
2023-03-26T04:57:45.260Z,99740.0
2023-03-26T04:59:40.442Z,99740.0
2023-03-26T05:01:40.758Z,99730.0
2023-03-26T05:03:40.845Z,99730.0
2023-03-26T05:05:39.564Z,99720.0
2023-03-26T05:07:39.027Z,99720.0
2023-03-26T05:09:38.525Z,99720.0
2023-03-26T05:11:38.544Z,99710.0
2023-03-26T05:13:38.502Z,99710.0
2023-03-26T05:15:37.562Z,99710.0
2023-03-26T05:19:38.048Z,99710.0
2023-03-26T05:21:36.996Z,99700.0
2023-03-26T05:23:36.298Z,99710.0
2023-03-26T05:25:36.303Z,99700.0
2023-03-26T05:29:35.506Z,99700.0
2023-03-26T05:31:35.317Z,99700.0
2023-03-26T05:33:35.118Z,99700.0
2023-03-26T05:35:34.507Z,99700.0
2023-03-26T05:37:34.645Z,99690.0
2023-03-26T05:39:34.548Z,99690.0
2023-03-26T05:41:33.942Z,99680.0
2023-03-26T05:45:32.954Z,99680.0
2023-03-26T05:47:32.575Z,99680.0
2023-03-26T05:49:32.300Z,99680.0
2023-03-26T05:51:31.851Z,99670.0
2023-03-26T05:53:31.750Z,99670.0
2023-03-26T05:55:32.379Z,99670.0
2023-03-26T05:57:31.742Z,99670.0
2023-03-26T05:59:30.881Z,99660.0
2023-03-26T06:01:30.477Z,99650.0
2023-03-26T06:03:30.543Z,99660.0
2023-03-26T06:05:31.644Z,99650.0
2023-03-26T06:07:30.192Z,99650.0
2023-03-26T06:09:29.504Z,99650.0
2023-03-26T06:11:30.202Z,99650.0
2023-03-26T06:13:28.989Z,99640.0
2023-03-26T06:15:28.123Z,99640.0
2023-03-26T06:19:27.315Z,99640.0
2023-03-26T06:21:27.357Z,99630.0
2023-03-26T06:23:27.049Z,99630.0
2023-03-26T06:25:26.577Z,99620.0
2023-03-26T06:27:26.055Z,99620.0
2023-03-26T06:33:25.393Z,99610.0
2023-03-26T06:35:24.886Z,99610.0
2023-03-26T06:37:24.655Z,99610.0
2023-03-26T06:41:23.707Z,99600.0
2023-03-26T06:45:23.337Z,99590.0
2023-03-26T06:49:22.861Z,99590.0
2023-03-26T06:51:22.170Z,99590.0
2023-03-26T06:53:22.009Z,99590.0
2023-03-26T06:55:22.729Z,99590.0
2023-03-26T06:57:21.464Z,99580.0
2023-03-26T06:59:21.139Z,99590.0
2023-03-26T07:01:20.773Z,99580.0
2023-03-26T07:03:20.907Z,99570.0
2023-03-26T07:05:20.334Z,99570.0
2023-03-26T07:07:20.784Z,99570.0
2023-03-26T07:09:19.600Z,99570.0
2023-03-26T07:11:19.757Z,99570.0
2023-03-26T07:13:18.916Z,99570.0
2023-03-26T07:15:18.420Z,99560.0
2023-03-26T07:17:17.994Z,99570.0
2023-03-26T07:19:17.713Z,99560.0
2023-03-26T07:21:19.030Z,99560.0
2023-03-26T07:23:19.484Z,99550.0
2023-03-26T07:25:17.513Z,99550.0
2023-03-26T07:27:32.779Z,99550.0
2023-03-26T07:29:26.709Z,99540.0
2023-03-26T07:31:27.990Z,99530.0
2023-03-26T07:33:25.317Z,99530.0
2023-03-26T07:35:21.517Z,99530.0
2023-03-26T07:37:27.900Z,99520.0
2023-03-26T07:41:21.288Z,99500.0
2023-03-26T07:43:27.721Z,99490.0
2023-03-26T07:45:22.400Z,99490.0
2023-03-26T07:47:24.596Z,99480.0
2023-03-26T07:49:13.740Z,99470.0
2023-03-26T07:53:12.992Z,99480.0
2023-03-26T07:55:13.013Z,99470.0
2023-03-26T07:57:20.876Z,99470.0
2023-03-26T08:03:24.986Z,99470.0
2023-03-26T08:05:19.928Z,99470.0
2023-03-26T08:07:17.443Z,99460.0
2023-03-26T08:09:19.623Z,99460.0
2023-03-26T08:11:23.052Z,99460.0
2023-03-26T08:13:21.661Z,99450.0
2023-03-26T08:15:15.241Z,99450.0
2023-03-26T08:17:12.405Z,99450.0
2023-03-26T08:19:24.373Z,99450.0
2023-03-26T08:21:12.967Z,99450.0
2023-03-26T08:23:16.101Z,99450.0
2023-03-26T08:25:19.193Z,99440.0
2023-03-26T08:27:15.374Z,99440.0
2023-03-26T08:29:13.366Z,99430.0
2023-03-26T08:31:08.812Z,99430.0
2023-03-26T08:33:13.537Z,99430.0
2023-03-26T08:35:05.551Z,99430.0
2023-03-26T08:37:04.325Z,99430.0
2023-03-26T08:41:23.915Z,99430.0
2023-03-26T08:43:23.081Z,99430.0
2023-03-26T08:45:22.698Z,99430.0
2023-03-26T08:47:21.418Z,99430.0
2023-03-26T08:51:21.986Z,99430.0
2023-03-26T08:53:21.407Z,99430.0
2023-03-26T08:55:21.109Z,99430.0
2023-03-26T08:59:20.497Z,99430.0
2023-03-26T09:01:19.882Z,99430.0
2023-03-26T09:03:18.397Z,99430.0
2023-03-26T09:05:19.359Z,99430.0
2023-03-26T09:07:16.929Z,99430.0
2023-03-26T09:09:19.353Z,99430.0
2023-03-26T09:11:17.997Z,99430.0
2023-03-26T09:13:17.326Z,99430.0
2023-03-26T09:15:17.726Z,99430.0
2023-03-26T09:17:14.945Z,99440.0
2023-03-26T09:19:15.513Z,99440.0
2023-03-26T09:21:16.245Z,99430.0
2023-03-26T09:23:15.412Z,99440.0
2023-03-26T09:25:15.544Z,99440.0
2023-03-26T09:27:06.903Z,99440.0
2023-03-26T09:29:15.139Z,99440.0
2023-03-26T09:31:14.037Z,99440.0
2023-03-26T09:33:14.139Z,99440.0
2023-03-26T09:35:11.874Z,99440.0
2023-03-26T09:36:56.183Z,99440.0
2023-03-26T09:39:02.101Z,99440.0
2023-03-26T09:41:01.366Z,99450.0
2023-03-26T09:42:55.404Z,99450.0
2023-03-26T09:45:09.450Z,99450.0
2023-03-26T09:47:09.551Z,99450.0
2023-03-26T09:49:10.806Z,99460.0
2023-03-26T09:53:01.361Z,99460.0
2023-03-26T09:55:07.305Z,99460.0
2023-03-26T09:56:58.672Z,99460.0
2023-03-26T10:00:59.847Z,99460.0
2023-03-26T10:07:00.356Z,99460.0
2023-03-26T10:09:00.660Z,99460.0
2023-03-26T10:10:53.658Z,99460.0
2023-03-26T10:16:58.758Z,99460.0
2023-03-26T10:19:03.172Z,99470.0
2023-03-26T10:20:55.725Z,99470.0
2023-03-26T10:25:00.854Z,99470.0
2023-03-26T10:27:09.349Z,99470.0
2023-03-26T10:29:01.224Z,99480.0
2023-03-26T10:30:55.770Z,99480.0
2023-03-26T10:32:56.850Z,99480.0
2023-03-26T10:34:55.407Z,99480.0
2023-03-26T10:36:52.502Z,99490.0
2023-03-26T10:38:57.555Z,99490.0
2023-03-26T10:40:54.403Z,99500.0
2023-03-26T10:42:59.013Z,99500.0
2023-03-26T10:44:59.491Z,99500.0
2023-03-26T10:46:55.869Z,99510.0
2023-03-26T10:49:02.544Z,99500.0
2023-03-26T10:50:52.139Z,99510.0
2023-03-26T10:52:46.876Z,99510.0
2023-03-26T10:54:50.721Z,99520.0
2023-03-26T10:56:44.759Z,99520.0
2023-03-26T10:58:49.592Z,99510.0
2023-03-26T11:02:44.589Z,99520.0
2023-03-26T11:06:49.394Z,99520.0
2023-03-26T11:08:42.842Z,99520.0
2023-03-26T11:12:42.605Z,99530.0
2023-03-26T11:14:46.003Z,99530.0
2023-03-26T11:16:52.485Z,99540.0
2023-03-26T11:18:42.421Z,99540.0
2023-03-26T11:20:40.792Z,99540.0
2023-03-26T11:22:46.079Z,99540.0
2023-03-26T11:24:52.279Z,99550.0
2023-03-26T11:26:48.072Z,99550.0
2023-03-26T11:29:03.056Z,99550.0
2023-03-26T11:30:42.080Z,99550.0
2023-03-26T11:32:39.099Z,99550.0
2023-03-26T11:34:37.478Z,99560.0
2023-03-26T11:36:36.747Z,99560.0
2023-03-26T11:38:36.737Z,99560.0
2023-03-26T11:40:36.400Z,99560.0
2023-03-26T11:44:37.056Z,99560.0
2023-03-26T11:46:33.732Z,99570.0
2023-03-26T11:48:34.739Z,99570.0
2023-03-26T11:50:34.134Z,99570.0
2023-03-26T11:52:29.928Z,99580.0
2023-03-26T11:54:29.336Z,99580.0
2023-03-26T11:56:32.782Z,99580.0
2023-03-26T11:58:36.218Z,99580.0
2023-03-26T12:00:29.228Z,99580.0
2023-03-26T12:02:31.485Z,99580.0
2023-03-26T12:06:28.007Z,99590.0
2023-03-26T12:10:31.616Z,99600.0
2023-03-26T12:12:28.859Z,99590.0
2023-03-26T12:14:28.891Z,99600.0
2023-03-26T12:16:26.350Z,99600.0
2023-03-26T12:18:26.777Z,99600.0
2023-03-26T12:20:37.511Z,99600.0
2023-03-26T12:22:31.912Z,99610.0
2023-03-26T12:24:28.408Z,99600.0
2023-03-26T12:26:36.588Z,99610.0
2023-03-26T12:28:31.744Z,99610.0
2023-03-26T12:32:29.745Z,99620.0
2023-03-26T12:34:28.455Z,99620.0
2023-03-26T12:36:26.892Z,99630.0
2023-03-26T12:38:23.327Z,99630.0
2023-03-26T12:40:31.510Z,99630.0
2023-03-26T12:44:48.737Z,99640.0
2023-03-26T12:44:50.407Z,99640.0
2023-03-26T12:50:34.416Z,99650.0
2023-03-26T12:52:37.453Z,99650.0
2023-03-26T12:54:35.947Z,99650.0
2023-03-26T13:00:27.788Z,99660.0
2023-03-26T13:02:35.219Z,99660.0
2023-03-26T13:04:33.187Z,99660.0
2023-03-26T13:06:28.125Z,99660.0
2023-03-26T13:08:35.404Z,99670.0
2023-03-26T13:10:30.210Z,99670.0
2023-03-26T13:12:29.350Z,99670.0
2023-03-26T13:14:32.657Z,99670.0
2023-03-26T13:16:23.825Z,99670.0
2023-03-26T13:18:26.534Z,99680.0
2023-03-26T13:20:20.472Z,99680.0
2023-03-26T13:22:24.586Z,99680.0
2023-03-26T13:23:58.467Z,99690.0
2023-03-26T13:24:24.756Z,99690.0
2023-03-26T13:27:16.222Z,99690.0
2023-03-26T13:28:21.509Z,99690.0
2023-03-26T13:30:21.897Z,99690.0
2023-03-26T13:34:21.621Z,99700.0
2023-03-26T13:36:23.989Z,99700.0
2023-03-26T13:38:19.233Z,99700.0
2023-03-26T13:42:27.813Z,99710.0
2023-03-26T13:44:22.033Z,99710.0
2023-03-26T13:46:20.046Z,99720.0
2023-03-26T13:48:15.868Z,99720.0
2023-03-26T13:50:20.525Z,99720.0
2023-03-26T13:54:20.540Z,99730.0
2023-03-26T13:56:12.925Z,99730.0
2023-03-26T13:58:16.234Z,99740.0
2023-03-26T14:02:14.034Z,99740.0
2023-03-26T14:04:16.742Z,99740.0
2023-03-26T14:06:21.096Z,99750.0
2023-03-26T14:10:11.243Z,99760.0
2023-03-26T14:12:21.966Z,99750.0
2023-03-26T14:16:13.970Z,99750.0
2023-03-26T14:18:19.463Z,99760.0
2023-03-26T14:20:24.250Z,99760.0
2023-03-26T14:22:17.271Z,99760.0
2023-03-26T14:24:16.128Z,99770.0
2023-03-26T14:26:14.508Z,99770.0
2023-03-26T14:28:18.969Z,99780.0
2023-03-26T14:32:15.572Z,99790.0
2023-03-26T14:34:22.466Z,99790.0
2023-03-26T14:36:13.720Z,99790.0
2023-03-26T14:38:21.812Z,99790.0
2023-03-26T14:40:20.967Z,99790.0
2023-03-26T14:42:09.607Z,99790.0
2023-03-26T14:48:18.327Z,99810.0
2023-03-26T14:50:19.392Z,99820.0
2023-03-26T14:52:05.209Z,99820.0
2023-03-26T14:56:18.396Z,99820.0
2023-03-26T14:58:12.739Z,99830.0
2023-03-26T15:02:17.626Z,99840.0
2023-03-26T15:06:16.814Z,99850.0
2023-03-26T15:08:16.488Z,99850.0
2023-03-26T15:10:12.367Z,99850.0
2023-03-26T15:18:15.145Z,99860.0
2023-03-26T15:20:14.552Z,99870.0
2023-03-26T15:22:14.304Z,99870.0
2023-03-26T15:24:13.958Z,99880.0
2023-03-26T15:26:13.593Z,99880.0
2023-03-26T15:28:13.654Z,99880.0
2023-03-26T15:30:13.361Z,99880.0
2023-03-26T15:32:12.616Z,99890.0
2023-03-26T15:34:12.318Z,99890.0
2023-03-26T15:36:09.570Z,99900.0
2023-03-26T15:38:11.713Z,99900.0
2023-03-26T15:41:57.318Z,99910.0
2023-03-26T15:44:24.015Z,99920.0
2023-03-26T15:46:01.751Z,99920.0
2023-03-26T15:48:01.385Z,99920.0
2023-03-26T15:49:58.141Z,99930.0
2023-03-26T15:53:56.788Z,99930.0
2023-03-26T15:56:06.413Z,99940.0
2023-03-26T15:58:00.419Z,99940.0
2023-03-26T16:00:00.377Z,99940.0
2023-03-26T16:02:01.251Z,99950.0
2023-03-26T16:03:58.546Z,99950.0
2023-03-26T16:06:06.254Z,99950.0
2023-03-26T16:09:59.750Z,99970.0
2023-03-26T16:11:52.310Z,99970.0
2023-03-26T16:13:49.618Z,99970.0
2023-03-26T16:15:54.929Z,99970.0
2023-03-26T16:21:54.816Z,99990.0
2023-03-26T16:23:54.135Z,100000.0
2023-03-26T16:25:56.068Z,100000.0
2023-03-26T16:27:44.326Z,100010.0
2023-03-26T16:30:03.872Z,100010.0
2023-03-26T16:31:58.819Z,100010.0
2023-03-26T16:33:49.122Z,100010.0
2023-03-26T16:36:01.720Z,100020.0
2023-03-26T16:41:55.430Z,100030.0
2023-03-26T16:43:49.512Z,100040.0
2023-03-26T16:47:50.462Z,100050.0
2023-03-26T16:50:08.967Z,100060.0
2023-03-26T16:51:55.484Z,100070.0
2023-03-26T16:53:50.276Z,100070.0
2023-03-26T16:55:45.885Z,100080.0
2023-03-26T16:57:45.621Z,100080.0
2023-03-26T17:00:04.614Z,100100.0
2023-03-26T17:01:44.860Z,100090.0
2023-03-26T17:03:45.804Z,100100.0
2023-03-26T17:05:50.200Z,100110.0
2023-03-26T17:07:44.848Z,100110.0
2023-03-26T17:09:51.010Z,100120.0
2023-03-26T17:11:48.959Z,100130.0
2023-03-26T17:13:46.895Z,100120.0
2023-03-26T17:15:45.121Z,100130.0
2023-03-26T17:17:49.220Z,100130.0
2023-03-26T17:19:45.964Z,100140.0
2023-03-26T17:21:46.789Z,100140.0
2023-03-26T17:23:54.483Z,100150.0
2023-03-26T17:25:39.445Z,100160.0
2023-03-26T17:27:43.886Z,100160.0
2023-03-26T17:29:53.385Z,100160.0
2023-03-26T17:31:40.396Z,100170.0
2023-03-26T17:33:35.680Z,100170.0
2023-03-26T17:35:38.935Z,100180.0
2023-03-26T17:37:43.525Z,100180.0
2023-03-26T17:39:51.604Z,100190.0
2023-03-26T17:41:50.566Z,100190.0
2023-03-26T17:43:35.458Z,100200.0
2023-03-26T17:45:35.137Z,100200.0
2023-03-26T17:47:37.203Z,100200.0
2023-03-26T17:49:32.375Z,100210.0
2023-03-26T17:51:39.157Z,100210.0
2023-03-26T17:53:32.042Z,100220.0
2023-03-26T17:55:33.316Z,100230.0
2023-03-26T17:57:39.014Z,100230.0
2023-03-26T17:59:31.107Z,100240.0
2023-03-26T18:01:33.739Z,100240.0
2023-03-26T18:03:33.148Z,100250.0
2023-03-26T18:05:30.001Z,100250.0
2023-03-26T18:09:44.730Z,100270.0
2023-03-26T18:11:40.950Z,100270.0
2023-03-26T18:13:43.592Z,100280.0
2023-03-26T18:15:30.093Z,100270.0
2023-03-26T18:17:25.551Z,100280.0
2023-03-26T18:19:25.571Z,100290.0
2023-03-26T18:23:28.682Z,100300.0
2023-03-26T18:25:27.676Z,100300.0
2023-03-26T18:27:24.690Z,100310.0
2023-03-26T18:29:24.669Z,100320.0
2023-03-26T18:31:25.088Z,100330.0
2023-03-26T18:35:23.268Z,100330.0
2023-03-26T18:37:23.633Z,100350.0
2023-03-26T18:39:21.157Z,100350.0
2023-03-26T18:41:27.257Z,100350.0
2023-03-26T18:43:32.586Z,100360.0
2023-03-26T18:45:26.312Z,100360.0
2023-03-26T18:47:20.177Z,100370.0
2023-03-26T18:49:19.616Z,100370.0
2023-03-26T18:51:21.911Z,100380.0
2023-03-26T18:53:22.100Z,100390.0
2023-03-26T18:55:18.288Z,100410.0
2023-03-26T18:57:20.908Z,100410.0
2023-03-26T18:59:26.962Z,100410.0
2023-03-26T19:01:25.410Z,100420.0
2023-03-26T19:03:21.053Z,100420.0
2023-03-26T19:05:18.642Z,100430.0
2023-03-26T19:07:21.410Z,100440.0
2023-03-26T19:09:30.842Z,100440.0
2023-03-26T19:11:17.068Z,100440.0
2023-03-26T19:13:15.873Z,100450.0
2023-03-26T19:15:16.270Z,100450.0
2023-03-26T19:17:14.104Z,100450.0
2023-03-26T19:19:17.155Z,100460.0
2023-03-26T19:21:16.929Z,100470.0
2023-03-26T19:23:16.715Z,100470.0
2023-03-26T19:25:20.778Z,100480.0
2023-03-26T19:27:12.697Z,100480.0
2023-03-26T19:31:22.388Z,100490.0
2023-03-26T19:33:14.747Z,100500.0
2023-03-26T19:35:20.536Z,100500.0
2023-03-26T19:41:19.845Z,100510.0
2023-03-26T19:43:10.652Z,100520.0
2023-03-26T19:45:15.717Z,100530.0
2023-03-26T19:47:17.112Z,100530.0
2023-03-26T19:49:26.004Z,100550.0
2023-03-26T19:51:18.928Z,100550.0
2023-03-26T19:53:17.275Z,100550.0
2023-03-26T19:55:20.315Z,100550.0
2023-03-26T19:57:08.636Z,100560.0
2023-03-26T19:59:06.747Z,100560.0
2023-03-26T20:01:09.863Z,100570.0
2023-03-26T20:05:14.401Z,100580.0
2023-03-26T20:07:10.077Z,100580.0
2023-03-26T20:09:04.265Z,100580.0
2023-03-26T20:11:04.485Z,100590.0
2023-03-26T20:13:11.608Z,100580.0
2023-03-26T20:15:19.353Z,100590.0
2023-03-26T20:17:03.537Z,100590.0
2023-03-26T20:21:09.402Z,100610.0
2023-03-26T20:23:02.026Z,100610.0
2023-03-26T20:25:02.281Z,100620.0
2023-03-26T20:27:00.886Z,100620.0
2023-03-26T20:29:00.576Z,100630.0
2023-03-26T20:31:00.232Z,100640.0
2023-03-26T20:33:12.064Z,100630.0
2023-03-26T20:34:59.599Z,100640.0
2023-03-26T20:37:01.168Z,100640.0
2023-03-26T20:38:59.785Z,100650.0
2023-03-26T20:40:58.590Z,100660.0
2023-03-26T20:42:57.838Z,100670.0
2023-03-26T20:44:57.573Z,100670.0
2023-03-26T20:46:58.131Z,100670.0
2023-03-26T20:48:56.908Z,100680.0
2023-03-26T20:50:56.273Z,100680.0
2023-03-26T20:52:56.107Z,100680.0
2023-03-26T20:54:57.744Z,100700.0
2023-03-26T20:56:55.685Z,100690.0
2023-03-26T20:59:09.964Z,100690.0
2023-03-26T21:00:59.368Z,100710.0
2023-03-26T21:02:57.095Z,100710.0
2023-03-26T21:04:54.187Z,100720.0
2023-03-26T21:08:53.174Z,100720.0
2023-03-26T21:10:55.527Z,100730.0
2023-03-26T21:12:56.348Z,100730.0
2023-03-26T21:14:51.819Z,100740.0
2023-03-26T21:16:51.810Z,100740.0
2023-03-26T21:18:51.108Z,100740.0
2023-03-26T21:22:59.352Z,100750.0
2023-03-26T21:26:55.469Z,100750.0
2023-03-26T21:28:49.431Z,100760.0
2023-03-26T21:30:49.966Z,100760.0
2023-03-26T21:32:48.556Z,100760.0
2023-03-26T21:34:58.829Z,100760.0
2023-03-26T21:36:48.503Z,100760.0
2023-03-26T21:38:47.131Z,100770.0
2023-03-26T21:40:58.091Z,100770.0
2023-03-26T21:42:48.805Z,100770.0
2023-03-26T21:44:45.926Z,100780.0
2023-03-26T21:46:47.546Z,100780.0
2023-03-26T21:48:45.155Z,100780.0
2023-03-26T21:50:44.769Z,100790.0
2023-03-26T21:52:49.756Z,100800.0
2023-03-26T21:54:44.097Z,100800.0
2023-03-26T21:58:50.817Z,100820.0
2023-03-26T22:00:55.799Z,100830.0
2023-03-26T22:02:55.465Z,100820.0
2023-03-26T22:04:48.206Z,100820.0
2023-03-26T22:06:47.099Z,100830.0
2023-03-26T22:08:41.765Z,100840.0
2023-03-26T22:14:40.353Z,100850.0
2023-03-26T22:16:40.497Z,100850.0
2023-03-26T22:18:38.968Z,100850.0
2023-03-26T22:20:38.774Z,100860.0
2023-03-26T22:22:38.554Z,100850.0
2023-03-26T22:24:38.040Z,100860.0
2023-03-26T22:26:37.758Z,100860.0
2023-03-26T22:28:37.289Z,100860.0
2023-03-26T22:32:36.657Z,100880.0
2023-03-26T22:34:37.077Z,100880.0
2023-03-26T22:36:36.047Z,100880.0
2023-03-26T22:38:35.512Z,100890.0
2023-03-26T22:42:34.633Z,100910.0
2023-03-26T22:44:33.945Z,100910.0
2023-03-26T22:46:33.711Z,100910.0
2023-03-26T22:48:33.131Z,100920.0
2023-03-26T22:50:33.917Z,100930.0
2023-03-26T22:52:32.832Z,100930.0
2023-03-26T22:54:32.186Z,100940.0
2023-03-26T22:56:31.891Z,100940.0
2023-03-26T23:00:31.289Z,100960.0
2023-03-26T23:02:30.674Z,100960.0
2023-03-26T23:04:31.328Z,100970.0
2023-03-26T23:06:30.570Z,100970.0
2023-03-26T23:08:30.215Z,100970.0
2023-03-26T23:10:29.031Z,100970.0
2023-03-26T23:14:28.525Z,100980.0
2023-03-26T23:16:27.612Z,100990.0
2023-03-26T23:18:28.254Z,100990.0
2023-03-26T23:22:26.683Z,101000.0
2023-03-26T23:24:26.060Z,101000.0
2023-03-26T23:26:30.716Z,101000.0
2023-03-26T23:28:26.282Z,100990.0
2023-03-26T23:30:24.842Z,101000.0
2023-03-26T23:32:25.140Z,101010.0
2023-03-26T23:34:24.596Z,101020.0
2023-03-26T23:36:24.710Z,101020.0
2023-03-26T23:42:28.859Z,101020.0
2023-03-26T23:46:23.644Z,101030.0
2023-03-26T23:48:23.602Z,101040.0
2023-03-26T23:50:22.496Z,101040.0
2023-03-26T23:52:20.684Z,101050.0
2023-03-26T23:56:20.245Z,101060.0
2023-03-26T23:58:21.007Z,101060.0
